Time;durP1;ratioP1;P1;durP2;ratioP2;P2;SDS_P1;SDS_P2;PMS_P1;PMS_P2;Temp;Humidity;BMP_temperature;BMP_pressure;BME280_temperature;BME280_humidity;BME280_pressure;Samples;Min_cycle;Max_cycle;Signal;HPM_P1;HPM_P2
2022/08/18 00:00:51;;;;;;;7.60;7.03;;;;;;;;;;5093745;28;20479;-77
2022/08/18 00:03:19;;;;;;;7.60;7.10;;;;;;;;;;5093502;28;20461;-76
2022/08/18 00:05:47;;;;;;;8.27;7.60;;;;;;;;;;5093669;28;20464;-75
2022/08/18 00:08:14;;;;;;;8.23;7.67;;;;;;;;;;5093520;28;20667;-76
2022/08/18 00:10:42;;;;;;;7.90;7.30;;;;;;;;;;5085190;28;20437;-76
2022/08/18 00:13:09;;;;;;;7.93;7.33;;;;;;;;;;5073422;28;20456;-77
2022/08/18 00:15:36;;;;;;;7.97;7.27;;;;;;;;;;5073474;28;20456;-76
2022/08/18 00:18:03;;;;;;;7.90;7.20;;;;;;;;;;5074178;28;20448;-76
2022/08/18 00:20:31;;;;;;;7.50;7.00;;;;;;;;;;5074111;28;20481;-76
2022/08/18 00:22:58;;;;;;;7.53;6.97;;;;;;;;;;5076394;28;20457;-77
2022/08/18 00:25:25;;;;;;;8.07;7.43;;;;;;;;;;5074693;28;20853;-77
2022/08/18 00:27:53;;;;;;;7.17;6.60;;;;;;;;;;5074374;28;20444;-77
2022/08/18 00:30:21;;;;;;;8.23;7.60;;;;;;;;;;5074063;28;20494;-78
2022/08/18 00:32:49;;;;;;;6.73;6.33;;;;;;;;;;5078024;28;20494;-76
2022/08/18 00:35:19;;;;;;;8.43;7.50;;;;;;;;;;5077149;28;20481;-76
2022/08/18 00:37:48;;;;;;;6.67;6.17;;;;;;;;;;5075293;28;20490;-76
2022/08/18 00:40:19;;;;;;;8.10;7.50;;;;;;;;;;5073984;28;20484;-75
2022/08/18 00:42:47;;;;;;;8.13;7.43;;;;;;;;;;5073087;28;20445;-75
2022/08/18 00:45:15;;;;;;;7.03;6.53;;;;;;;;;;5073021;28;20473;-78
2022/08/18 00:47:42;;;;;;;8.07;7.40;;;;;;;;;;5072489;28;20441;-77
2022/08/18 00:50:10;;;;;;;8.30;7.50;;;;;;;;;;5072305;28;20461;-78
2022/08/18 00:52:37;;;;;;;7.20;6.70;;;;;;;;;;5071595;28;20452;-77
2022/08/18 00:55:06;;;;;;;7.83;7.10;;;;;;;;;;5074910;28;20463;-77
2022/08/18 00:57:34;;;;;;;7.40;6.80;;;;;;;;;;5088460;28;20447;-76
2022/08/18 01:00:07;;;;;;;7.53;7.03;;;;;;;;;;5091878;28;21025;-76
2022/08/18 01:02:38;;;;;;;8.20;7.60;;;;;;;;;;5092396;28;20491;-77
2022/08/18 01:05:09;;;;;;;7.87;7.17;;;;;;;;;;5092378;28;20471;-77
2022/08/18 01:07:39;;;;;;;7.30;6.80;;;;;;;;;;5092112;28;21063;-77
2022/08/18 01:10:08;;;;;;;7.53;6.90;;;;;;;;;;5091965;28;20946;-77
2022/08/18 01:12:36;;;;;;;7.70;7.10;;;;;;;;;;5091723;28;20925;-77
2022/08/18 01:15:03;;;;;;;8.40;7.77;;;;;;;;;;5092011;28;20469;-77
2022/08/18 01:23:10;;;;;;;8.50;7.80;;;;;;;;;;5091743;28;20569;-77
2022/08/18 01:28:22;;;;;;;8.20;7.60;;;;;;;;;;5091656;28;21080;-77
2022/08/18 01:30:50;;;;;;;9.10;8.30;;;;;;;;;;5091650;28;20449;-77
2022/08/18 01:33:18;;;;;;;8.37;7.67;;;;;;;;;;5091302;28;21246;-77
2022/08/18 01:35:48;;;;;;;9.17;8.50;;;;;;;;;;5091467;28;20532;-77
2022/08/18 01:38:17;;;;;;;8.70;8.10;;;;;;;;;;5091610;28;20526;-77
2022/08/18 01:40:45;;;;;;;8.20;7.50;;;;;;;;;;5091359;28;20568;-76
2022/08/18 01:43:12;;;;;;;8.70;8.10;;;;;;;;;;5091744;28;20440;-76
2022/08/18 01:45:39;;;;;;;9.30;8.50;;;;;;;;;;5091585;28;20536;-76
2022/08/18 01:48:06;;;;;;;8.07;7.47;;;;;;;;;;5091392;28;20448;-76
2022/08/18 01:50:34;;;;;;;8.27;7.57;;;;;;;;;;5091347;28;20451;-76
2022/08/18 01:53:01;;;;;;;8.63;8.00;;;;;;;;;;5091356;28;20440;-76
2022/08/18 01:55:29;;;;;;;8.87;8.20;;;;;;;;;;5091005;28;20512;-76
2022/08/18 01:57:56;;;;;;;8.17;7.57;;;;;;;;;;5091029;28;20492;-76
2022/08/18 02:00:24;;;;;;;9.40;8.70;;;;;;;;;;5091087;28;20476;-77
2022/08/18 02:02:51;;;;;;;8.50;7.87;;;;;;;;;;5091499;28;20455;-76
2022/08/18 02:05:20;;;;;;;8.73;7.93;;;;;;;;;;5091348;28;20467;-75
2022/08/18 02:07:48;;;;;;;8.90;8.20;;;;;;;;;;5091199;28;20487;-77
2022/08/18 02:10:16;;;;;;;8.93;8.33;;;;;;;;;;5086066;28;20444;-77
2022/08/18 02:12:45;;;;;;;8.57;7.97;;;;;;;;;;5070462;28;20480;-77
2022/08/18 02:15:12;;;;;;;8.97;8.27;;;;;;;;;;5070598;28;20477;-76
2022/08/18 02:17:40;;;;;;;8.47;7.87;;;;;;;;;;5070245;28;20936;-76
2022/08/18 02:20:08;;;;;;;8.43;7.83;;;;;;;;;;5070658;28;20472;-77
2022/08/18 02:22:35;;;;;;;9.07;8.43;;;;;;;;;;5070624;28;21187;-76
2022/08/18 02:25:02;;;;;;;9.10;8.30;;;;;;;;;;5070400;28;20468;-77
2022/08/18 02:27:29;;;;;;;8.30;7.53;;;;;;;;;;5070320;28;20433;-76
2022/08/18 02:29:59;;;;;;;8.37;7.77;;;;;;;;;;5070298;28;20940;-77
2022/08/18 02:32:26;;;;;;;8.47;7.50;;;;;;;;;;5070639;28;20452;-77
2022/08/18 02:34:53;;;;;;;8.97;8.37;;;;;;;;;;5070251;28;21126;-78
2022/08/18 02:37:21;;;;;;;7.83;7.30;;;;;;;;;;5070247;28;20444;-77
2022/08/18 02:39:48;;;;;;;8.70;7.93;;;;;;;;;;5070788;28;20829;-77
2022/08/18 02:42:16;;;;;;;7.93;7.30;;;;;;;;;;5070376;28;20437;-76
2022/08/18 02:44:43;;;;;;;7.13;6.63;;;;;;;;;;5069849;28;20490;-77
2022/08/18 02:47:11;;;;;;;8.13;7.53;;;;;;;;;;5070365;28;20492;-78
2022/08/18 02:49:38;;;;;;;8.10;7.33;;;;;;;;;;5071976;28;20448;-77
2022/08/18 02:52:05;;;;;;;7.47;6.87;;;;;;;;;;5074292;28;20978;-77
2022/08/18 02:54:33;;;;;;;7.97;7.40;;;;;;;;;;5074318;28;20448;-77
2022/08/18 02:57:06;;;;;;;8.00;7.40;;;;;;;;;;5074048;28;20555;-77
2022/08/18 02:59:33;;;;;;;6.73;6.33;;;;;;;;;;5074441;28;20452;-77
2022/08/18 03:02:01;;;;;;;7.50;6.90;;;;;;;;;;5074130;28;20480;-77
2022/08/18 03:04:30;;;;;;;6.83;6.33;;;;;;;;;;5073824;28;20448;-78
2022/08/18 03:06:58;;;;;;;8.20;7.50;;;;;;;;;;5073547;28;20472;-76
2022/08/18 03:09:25;;;;;;;7.93;7.43;;;;;;;;;;5074256;28;20440;-77
2022/08/18 03:11:53;;;;;;;8.47;7.77;;;;;;;;;;5073916;28;20437;-78
2022/08/18 03:14:20;;;;;;;7.83;7.23;;;;;;;;;;5073731;28;20472;-77
2022/08/18 03:16:48;;;;;;;8.03;7.40;;;;;;;;;;5073874;28;20886;-77
2022/08/18 03:19:15;;;;;;;7.33;6.77;;;;;;;;;;5073832;28;20518;-76
2022/08/18 03:21:45;;;;;;;8.20;7.60;;;;;;;;;;5073466;28;21078;-77
2022/08/18 03:24:13;;;;;;;8.53;7.83;;;;;;;;;;5073424;28;20940;-77
2022/08/18 03:26:41;;;;;;;8.10;7.50;;;;;;;;;;5073602;28;20507;-77
2022/08/18 03:29:08;;;;;;;8.70;7.90;;;;;;;;;;5075046;28;20527;-76
2022/08/18 03:31:37;;;;;;;7.93;7.30;;;;;;;;;;5074955;28;20445;-76
2022/08/18 03:34:05;;;;;;;7.67;7.17;;;;;;;;;;5073807;28;20447;-77
2022/08/18 03:36:34;;;;;;;7.53;6.97;;;;;;;;;;5073545;28;20551;-76
2022/08/18 03:39:05;;;;;;;7.60;7.00;;;;;;;;;;5073896;28;20448;-76
2022/08/18 03:41:32;;;;;;;7.87;7.27;;;;;;;;;;5073387;28;20483;-77
2022/08/18 03:43:59;;;;;;;8.27;7.67;;;;;;;;;;5073011;28;20445;-77
2022/08/18 03:46:27;;;;;;;7.97;7.40;;;;;;;;;;5073177;28;20521;-76
2022/08/18 03:48:57;;;;;;;7.70;7.10;;;;;;;;;;5073200;28;20916;-76
2022/08/18 03:51:25;;;;;;;8.23;7.67;;;;;;;;;;5074347;28;20440;-76
2022/08/18 03:53:53;;;;;;;8.47;7.87;;;;;;;;;;5074654;28;20445;-76
2022/08/18 03:56:22;;;;;;;8.03;7.43;;;;;;;;;;5074631;28;20465;-77
2022/08/18 03:58:51;;;;;;;8.67;7.90;;;;;;;;;;5073401;28;20440;-77
2022/08/18 04:01:20;;;;;;;7.73;7.23;;;;;;;;;;5073167;28;20476;-76
2022/08/18 04:03:47;;;;;;;9.07;8.03;;;;;;;;;;5085327;28;20454;-76
2022/08/18 04:06:15;;;;;;;8.90;8.20;;;;;;;;;;5099454;28;20469;-76
2022/08/18 04:08:43;;;;;;;7.67;7.10;;;;;;;;;;5099581;28;20441;-76
2022/08/18 04:11:13;;;;;;;8.63;8.03;;;;;;;;;;5098871;28;20467;-75
2022/08/18 04:13:41;;;;;;;7.70;7.20;;;;;;;;;;5088069;28;20528;-77
2022/08/18 04:16:08;;;;;;;7.90;7.30;;;;;;;;;;5075065;28;20976;-77
2022/08/18 04:18:35;;;;;;;8.13;7.53;;;;;;;;;;5073563;28;20444;-77
2022/08/18 04:21:03;;;;;;;7.27;6.67;;;;;;;;;;5073090;28;20492;-77
2022/08/18 04:23:30;;;;;;;8.57;7.97;;;;;;;;;;5072412;28;20448;-77
2022/08/18 04:25:57;;;;;;;8.83;8.13;;;;;;;;;;5072464;28;20515;-75
2022/08/18 04:28:25;;;;;;;7.90;7.30;;;;;;;;;;5072214;28;20800;-77
2022/08/18 04:30:54;;;;;;;8.90;8.20;;;;;;;;;;5072748;28;20437;-77
2022/08/18 04:33:21;;;;;;;8.97;8.37;;;;;;;;;;5074202;28;20452;-77
2022/08/18 04:35:48;;;;;;;8.53;7.87;;;;;;;;;;5079033;28;20515;-77
2022/08/18 04:38:15;;;;;;;8.10;7.53;;;;;;;;;;5072542;28;20448;-76
2022/08/18 04:40:42;;;;;;;8.47;7.70;;;;;;;;;;5072752;28;20476;-77
2022/08/18 04:43:14;;;;;;;8.10;7.50;;;;;;;;;;5072780;28;20444;-76
2022/08/18 04:45:41;;;;;;;8.83;8.13;;;;;;;;;;5072336;28;20589;-78
2022/08/18 04:48:09;;;;;;;8.17;7.60;;;;;;;;;;5072329;28;20471;-76
2022/08/18 04:50:37;;;;;;;7.60;7.10;;;;;;;;;;5071907;28;20444;-77
2022/08/18 04:55:50;;;;;;;8.63;7.90;;;;;;;;;;5072029;28;20514;-76
2022/08/18 04:58:17;;;;;;;8.07;7.57;;;;;;;;;;5072108;28;20543;-77
2022/08/18 05:00:44;;;;;;;9.53;8.87;;;;;;;;;;5072358;28;20448;-76
2022/08/18 05:03:13;;;;;;;8.97;8.27;;;;;;;;;;5071466;28;20480;-78
2022/08/18 05:05:40;;;;;;;8.40;7.80;;;;;;;;;;5071698;28;20514;-77
2022/08/18 05:08:07;;;;;;;8.40;7.80;;;;;;;;;;5071530;28;21018;-77
2022/08/18 05:10:35;;;;;;;8.87;8.07;;;;;;;;;;5077659;28;20462;-77
2022/08/18 05:13:03;;;;;;;13.37;7.53;;;;;;;;;;5091355;28;20444;-77
2022/08/18 05:15:30;;;;;;;8.10;7.50;;;;;;;;;;5091333;28;21103;-77
2022/08/18 05:17:57;;;;;;;8.00;7.40;;;;;;;;;;5091934;28;20444;-77
2022/08/18 05:20:25;;;;;;;8.10;7.50;;;;;;;;;;5091492;28;20448;-75
2022/08/18 05:22:52;;;;;;;8.40;7.70;;;;;;;;;;5091448;28;20476;-76
2022/08/18 05:25:20;;;;;;;8.10;7.60;;;;;;;;;;5091456;28;20456;-77
2022/08/18 05:27:47;;;;;;;7.93;7.43;;;;;;;;;;5091533;28;20448;-77
2022/08/18 05:30:14;;;;;;;8.03;7.43;;;;;;;;;;5091449;28;20443;-77
2022/08/18 05:32:42;;;;;;;9.07;8.27;;;;;;;;;;5090882;28;20962;-77
2022/08/18 05:35:11;;;;;;;8.27;7.60;;;;;;;;;;5091446;28;20807;-76
2022/08/18 05:37:43;;;;;;;9.97;9.17;;;;;;;;;;5091673;28;20467;-77
2022/08/18 05:40:10;;;;;;;8.60;8.00;;;;;;;;;;5089392;28;20463;-77
2022/08/18 05:42:39;;;;;;;9.40;8.57;;;;;;;;;;5089704;28;20483;-77
2022/08/18 05:45:09;;;;;;;8.77;8.07;;;;;;;;;;5091323;28;20541;-77
2022/08/18 05:47:36;;;;;;;8.20;7.60;;;;;;;;;;5093318;28;20463;-77
2022/08/18 05:50:04;;;;;;;8.87;8.17;;;;;;;;;;5095966;28;20448;-77
2022/08/18 05:52:34;;;;;;;8.80;8.20;;;;;;;;;;5092585;28;20444;-77
2022/08/18 05:57:52;;;;;;;9.37;8.67;;;;;;;;;;5091511;28;20423;-77
2022/08/18 06:00:22;;;;;;;9.27;8.57;;;;;;;;;;5090944;28;20942;-77
2022/08/18 06:02:52;;;;;;;9.70;9.00;;;;;;;;;;5090769;28;20600;-77
2022/08/18 06:05:22;;;;;;;9.27;8.53;;;;;;;;;;5091089;28;20467;-76
2022/08/18 06:07:51;;;;;;;9.10;8.40;;;;;;;;;;5090771;28;20463;-76
2022/08/18 06:10:20;;;;;;;10.00;9.30;;;;;;;;;;5090531;28;20440;-76
2022/08/18 06:12:50;;;;;;;9.30;8.50;;;;;;;;;;5090403;28;20453;-77
2022/08/18 06:15:25;;;;;;;9.07;8.37;;;;;;;;;;5092851;28;20463;-77
2022/08/18 06:18:10;;;;;;;8.57;8.00;;;;;;;;;;5090919;28;20559;-77
2022/08/18 06:20:45;;;;;;;9.70;9.00;;;;;;;;;;5091085;28;20443;-76
2022/08/18 06:23:23;;;;;;;9.67;8.97;;;;;;;;;;5090518;28;20475;-77
2022/08/18 06:25:57;;;;;;;9.37;8.67;;;;;;;;;;5090811;28;20814;-76
2022/08/18 06:28:24;;;;;;;10.20;9.20;;;;;;;;;;5090888;28;20440;-78
2022/08/18 06:30:55;;;;;;;10.03;9.10;;;;;;;;;;5090780;28;20447;-76
2022/08/18 06:33:32;;;;;;;8.63;8.10;;;;;;;;;;5090225;28;20476;-77
2022/08/18 06:36:03;;;;;;;9.00;8.37;;;;;;;;;;5090841;28;20470;-78
2022/08/18 06:38:40;;;;;;;9.80;9.00;;;;;;;;;;5091671;28;20948;-77
2022/08/18 06:41:13;;;;;;;9.20;8.40;;;;;;;;;;5095756;28;20439;-77
2022/08/18 06:43:44;;;;;;;9.40;8.70;;;;;;;;;;5093316;28;20496;-77
2022/08/18 06:46:16;;;;;;;9.97;8.97;;;;;;;;;;5090866;28;21025;-76
2022/08/18 06:48:46;;;;;;;9.70;8.90;;;;;;;;;;5090551;28;20452;-77
2022/08/18 06:51:15;;;;;;;10.37;9.50;;;;;;;;;;5090986;28;20451;-77
2022/08/18 06:53:52;;;;;;;11.40;10.50;;;;;;;;;;5091094;28;20447;-77
2022/08/18 06:56:25;;;;;;;10.67;9.80;;;;;;;;;;5090464;28;20471;-76
2022/08/18 06:58:54;;;;;;;11.93;10.80;;;;;;;;;;5085911;28;20451;-76
2022/08/18 07:01:21;;;;;;;12.63;11.43;;;;;;;;;;5082521;28;20448;-76
2022/08/18 07:03:51;;;;;;;10.77;9.87;;;;;;;;;;5091779;28;20439;-76
2022/08/18 07:06:26;;;;;;;11.47;10.57;;;;;;;;;;5091830;28;20783;-77
2022/08/18 07:08:54;;;;;;;10.57;9.60;;;;;;;;;;5090231;28;20446;-76
2022/08/18 07:11:30;;;;;;;12.30;11.30;;;;;;;;;;5090580;28;20436;-77
2022/08/18 07:13:59;;;;;;;10.53;9.73;;;;;;;;;;5090357;28;20501;-76
2022/08/18 07:16:31;;;;;;;13.20;12.00;;;;;;;;;;5090010;28;20527;-77
2022/08/18 07:19:06;;;;;;;12.90;11.70;;;;;;;;;;5090510;28;21337;-77
2022/08/18 07:21:36;;;;;;;13.93;12.73;;;;;;;;;;5090511;28;20593;-77
2022/08/18 07:24:06;;;;;;;12.60;11.47;;;;;;;;;;5089988;28;20478;-77
2022/08/18 07:26:54;;;;;;;14.10;12.80;;;;;;;;;;5090622;28;20517;-77
2022/08/18 07:29:22;;;;;;;12.33;11.33;;;;;;;;;;5089966;28;20451;-76
2022/08/18 07:31:52;;;;;;;12.80;11.70;;;;;;;;;;5089742;28;20504;-78
2022/08/18 07:34:24;;;;;;;12.83;11.63;;;;;;;;;;5089621;28;20929;-77
2022/08/18 07:36:54;;;;;;;12.93;11.77;;;;;;;;;;5093161;28;20479;-77
2022/08/18 07:39:24;;;;;;;10.50;9.60;;;;;;;;;;5093356;28;20467;-76
2022/08/18 07:41:53;;;;;;;7.87;7.17;;;;;;;;;;5093457;28;20500;-77
2022/08/18 07:44:24;;;;;;;8.53;7.87;;;;;;;;;;5092831;28;20447;-77
2022/08/18 07:46:59;;;;;;;8.07;7.37;;;;;;;;;;5093704;28;20468;-76
2022/08/18 07:49:29;;;;;;;9.00;8.00;;;;;;;;;;5094065;28;20439;-77
2022/08/18 07:51:58;;;;;;;8.77;8.17;;;;;;;;;;5095638;28;20467;-76
2022/08/18 07:54:31;;;;;;;8.03;7.53;;;;;;;;;;5116479;28;20848;-76
2022/08/18 07:57:02;;;;;;;8.07;7.37;;;;;;;;;;5118520;28;20463;-75
2022/08/18 07:59:33;;;;;;;9.07;8.23;;;;;;;;;;5117376;28;20444;-76
2022/08/18 08:02:07;;;;;;;8.30;7.73;;;;;;;;;;5102268;28;20509;-77
2022/08/18 08:04:39;;;;;;;9.10;8.43;;;;;;;;;;5094180;28;20469;-77
2022/08/18 08:07:10;;;;;;;8.07;7.47;;;;;;;;;;5093349;28;20451;-77
2022/08/18 08:09:41;;;;;;;9.03;8.33;;;;;;;;;;5093178;28;20535;-77
2022/08/18 08:12:19;;;;;;;8.23;7.50;;;;;;;;;;5093039;28;20428;-77
2022/08/18 08:14:47;;;;;;;8.40;7.70;;;;;;;;;;5092662;28;20592;-77
2022/08/18 08:17:22;;;;;;;13.97;12.67;;;;;;;;;;5093009;28;20442;-77
2022/08/18 08:19:56;;;;;;;8.73;7.93;;;;;;;;;;5092909;28;20542;-77
2022/08/18 08:22:27;;;;;;;8.30;7.70;;;;;;;;;;5092825;28;20556;-76
2022/08/18 08:24:59;;;;;;;8.50;7.80;;;;;;;;;;5092706;28;20461;-77
2022/08/18 08:27:32;;;;;;;9.63;8.83;;;;;;;;;;5092665;28;20443;-76
2022/08/18 08:30:01;;;;;;;7.87;7.30;;;;;;;;;;5092377;28;20906;-77
2022/08/18 08:32:32;;;;;;;8.57;7.97;;;;;;;;;;5092513;28;20935;-76
2022/08/18 08:35:03;;;;;;;8.73;7.93;;;;;;;;;;5092535;28;20460;-77
2022/08/18 08:37:34;;;;;;;9.57;8.90;;;;;;;;;;5092621;28;20436;-77
2022/08/18 08:40:03;;;;;;;9.13;8.40;;;;;;;;;;5093043;28;20839;-77
2022/08/18 08:42:37;;;;;;;9.10;8.40;;;;;;;;;;5092388;28;20483;-76
2022/08/18 08:45:07;;;;;;;9.50;8.60;;;;;;;;;;5079420;28;20930;-77
2022/08/18 08:47:40;;;;;;;8.93;8.23;;;;;;;;;;5082483;28;20453;-77
2022/08/18 08:50:09;;;;;;;9.17;8.47;;;;;;;;;;5086251;28;20452;-77
2022/08/18 08:52:40;;;;;;;10.17;9.33;;;;;;;;;;5079721;28;20848;-76
2022/08/18 08:55:11;;;;;;;9.80;8.93;;;;;;;;;;5085286;28;21022;-78
2022/08/18 08:57:42;;;;;;;10.10;9.23;;;;;;;;;;5079750;28;20997;-77
2022/08/18 09:00:13;;;;;;;9.83;9.20;;;;;;;;;;5073110;28;20474;-78
2022/08/18 09:02:55;;;;;;;9.77;8.87;;;;;;;;;;5075978;28;20526;-77
2022/08/18 09:05:24;;;;;;;9.60;9.00;;;;;;;;;;5083224;28;20456;-78
2022/08/18 09:08:01;;;;;;;10.30;9.50;;;;;;;;;;5078440;28;20452;-76
2022/08/18 09:10:40;;;;;;;8.53;7.83;;;;;;;;;;5083884;28;20467;-77
2022/08/18 09:13:16;;;;;;;9.00;8.40;;;;;;;;;;5087088;28;20831;-77
2022/08/18 09:15:50;;;;;;;8.60;8.00;;;;;;;;;;5092398;28;20905;-77
2022/08/18 09:18:38;;;;;;;9.70;9.00;;;;;;;;;;5092710;28;20444;-76
2022/08/18 09:21:14;;;;;;;9.70;9.00;;;;;;;;;;5068934;28;20514;-77
2022/08/18 09:23:43;;;;;;;8.40;7.80;;;;;;;;;;5072220;28;20476;-77
2022/08/18 09:26:23;;;;;;;9.30;8.60;;;;;;;;;;5071919;28;20469;-77
2022/08/18 09:28:56;;;;;;;9.80;9.10;;;;;;;;;;5072361;28;20445;-77
2022/08/18 09:31:24;;;;;;;8.00;7.40;;;;;;;;;;5077885;28;20443;-76
2022/08/18 09:34:09;;;;;;;10.37;9.43;;;;;;;;;;5082763;28;20923;-76
2022/08/18 09:36:44;;;;;;;9.97;8.30;;;;;;;;;;5090657;28;20475;-77
2022/08/18 09:42:08;;;;;;;10.57;9.63;;;;;;;;;;5099052;28;20504;-76
2022/08/18 09:44:54;;;;;;;11.50;10.70;;;;;;;;;;5093247;28;20424;-76
2022/08/18 09:47:36;;;;;;;9.90;8.90;;;;;;;;;;5095651;28;20471;-76
2022/08/18 09:50:18;;;;;;;9.87;9.07;;;;;;;;;;5061649;28;20923;-77
2022/08/18 09:52:52;;;;;;;10.40;9.40;;;;;;;;;;5091960;28;21001;-77
2022/08/18 09:55:41;;;;;;;10.13;9.20;;;;;;;;;;5092105;28;20485;-76
2022/08/18 09:58:14;;;;;;;11.50;10.67;;;;;;;;;;5092434;28;20497;-77
2022/08/18 10:00:41;;;;;;;11.40;10.30;;;;;;;;;;5092282;28;20519;-76
2022/08/18 10:03:26;;;;;;;10.40;9.60;;;;;;;;;;5091610;28;20476;-76
2022/08/18 10:06:11;;;;;;;10.43;9.60;;;;;;;;;;5091915;28;20470;-77
2022/08/18 10:08:54;;;;;;;11.93;11.03;;;;;;;;;;5085790;28;20524;-76
2022/08/18 10:11:26;;;;;;;11.20;10.30;;;;;;;;;;5094728;28;20451;-76
2022/08/18 10:13:57;;;;;;;12.50;11.50;;;;;;;;;;5094481;28;20443;-76
2022/08/18 10:16:29;;;;;;;12.50;11.60;;;;;;;;;;5091982;28;20864;-76
2022/08/18 10:19:07;;;;;;;12.57;11.47;;;;;;;;;;5092033;28;20444;-76
2022/08/18 10:21:49;;;;;;;11.23;10.33;;;;;;;;;;5091528;28;20951;-76
2022/08/18 10:24:19;;;;;;;11.40;10.60;;;;;;;;;;5091241;28;20882;-76
2022/08/18 10:27:08;;;;;;;11.43;10.60;;;;;;;;;;5091764;28;20467;-77
2022/08/18 10:29:45;;;;;;;10.90;10.03;;;;;;;;;;5092280;28;20473;-77
2022/08/18 10:32:23;;;;;;;12.17;11.17;;;;;;;;;;5092651;28;20492;-77
2022/08/18 10:34:51;;;;;;;12.07;10.97;;;;;;;;;;5093133;28;20532;-77
2022/08/18 10:37:19;;;;;;;11.73;10.83;;;;;;;;;;5092348;28;20938;-77
2022/08/18 10:39:50;;;;;;;12.53;11.40;;;;;;;;;;5091560;28;20440;-77
2022/08/18 10:42:20;;;;;;;13.13;12.23;;;;;;;;;;5091539;28;20489;-76
2022/08/18 10:44:49;;;;;;;12.13;11.17;;;;;;;;;;5091269;28;20455;-77
2022/08/18 10:47:24;;;;;;;11.17;10.37;;;;;;;;;;5092073;28;20820;-77
2022/08/18 10:49:51;;;;;;;11.20;10.20;;;;;;;;;;5092020;28;20468;-77
2022/08/18 10:52:33;;;;;;;10.37;9.47;;;;;;;;;;5091601;28;20518;-77
2022/08/18 10:55:22;;;;;;;10.40;9.70;;;;;;;;;;5080948;28;20472;-77
2022/08/18 10:58:00;;;;;;;10.13;9.40;;;;;;;;;;5091190;28;20436;-78
2022/08/18 11:00:36;;;;;;;10.17;9.47;;;;;;;;;;5091447;28;20447;-77
2022/08/18 11:03:10;;;;;;;9.47;8.77;;;;;;;;;;5091482;28;20536;-78
2022/08/18 11:05:37;;;;;;;10.03;9.33;;;;;;;;;;5091530;28;20471;-78
2022/08/18 11:08:05;;;;;;;10.40;9.60;;;;;;;;;;5090952;28;20447;-78
2022/08/18 11:10:38;;;;;;;9.17;8.57;;;;;;;;;;5092643;28;20836;-78
2022/08/18 11:13:09;;;;;;;9.97;9.17;;;;;;;;;;5095314;28;20447;-77
2022/08/18 11:15:41;;;;;;;10.30;9.60;;;;;;;;;;5098686;28;20459;-77
2022/08/18 11:18:18;;;;;;;9.63;9.00;;;;;;;;;;5095795;28;20439;-77
2022/08/18 11:20:45;;;;;;;11.20;10.20;;;;;;;;;;5094855;28;20447;-77
2022/08/18 11:23:14;;;;;;;11.13;10.33;;;;;;;;;;5094837;28;20484;-77
2022/08/18 11:25:43;;;;;;;10.90;10.10;;;;;;;;;;5094952;28;20646;-77
2022/08/18 11:28:15;;;;;;;9.87;9.27;;;;;;;;;;5095120;28;20457;-78
2022/08/18 11:30:43;;;;;;;12.03;11.13;;;;;;;;;;5095292;28;20952;-78
2022/08/18 11:33:14;;;;;;;11.70;10.80;;;;;;;;;;5094749;28;20448;-77
2022/08/18 11:35:46;;;;;;;11.77;10.97;;;;;;;;;;5095149;28;20531;-78
2022/08/18 11:38:15;;;;;;;12.00;11.00;;;;;;;;;;5094892;28;20446;-78
2022/08/18 11:40:44;;;;;;;11.63;10.53;;;;;;;;;;5095139;28;20443;-77
2022/08/18 11:43:13;;;;;;;11.73;10.90;;;;;;;;;;5094598;28;20830;-77
2022/08/18 11:45:52;;;;;;;11.50;10.50;;;;;;;;;;5094800;28;20504;-77
2022/08/18 11:48:21;;;;;;;12.90;11.77;;;;;;;;;;5095348;28;20481;-78
2022/08/18 11:50:50;;;;;;;11.67;10.83;;;;;;;;;;5094975;28;20477;-77
2022/08/18 11:53:23;;;;;;;12.47;11.47;;;;;;;;;;5094749;28;20447;-77
2022/08/18 11:56:04;;;;;;;12.73;11.73;;;;;;;;;;5094942;28;20468;-78
2022/08/18 11:58:44;;;;;;;11.60;10.57;;;;;;;;;;5095183;28;20443;-78
2022/08/18 12:01:11;;;;;;;11.93;10.80;;;;;;;;;;5094842;28;20865;-77
2022/08/18 12:03:41;;;;;;;13.53;12.43;;;;;;;;;;5094748;28;20486;-78
2022/08/18 12:06:14;;;;;;;11.90;10.77;;;;;;;;;;5094819;28;20851;-75
2022/08/18 12:08:49;;;;;;;10.80;10.00;;;;;;;;;;5095119;28;20496;-78
2022/08/18 12:11:19;;;;;;;11.70;10.70;;;;;;;;;;5095043;28;20496;-76
2022/08/18 12:13:47;;;;;;;11.00;9.97;;;;;;;;;;5094273;28;20443;-77
2022/08/18 12:16:18;;;;;;;11.33;10.43;;;;;;;;;;5094602;28;20467;-77
2022/08/18 12:18:45;;;;;;;10.97;10.00;;;;;;;;;;5095807;28;20539;-77
2022/08/18 12:21:12;;;;;;;10.80;9.70;;;;;;;;;;5100755;28;20462;-77
2022/08/18 12:23:42;;;;;;;10.77;10.07;;;;;;;;;;5101496;28;20479;-76
2022/08/18 12:26:09;;;;;;;10.40;9.70;;;;;;;;;;5101490;28;21001;-77
2022/08/18 12:28:39;;;;;;;12.43;11.53;;;;;;;;;;5102894;28;20483;-76
2022/08/18 12:31:06;;;;;;;12.13;11.23;;;;;;;;;;5104696;28;20451;-77
2022/08/18 12:33:34;;;;;;;9.90;9.20;;;;;;;;;;5106581;28;20507;-77
2022/08/18 12:36:01;;;;;;;10.20;9.50;;;;;;;;;;5113282;28;20460;-77
2022/08/18 12:38:28;;;;;;;9.37;8.63;;;;;;;;;;5102552;28;20869;-76
2022/08/18 12:40:55;;;;;;;8.77;8.20;;;;;;;;;;5094552;28;20489;-77
2022/08/18 12:43:23;;;;;;;8.60;7.90;;;;;;;;;;5088748;28;20471;-77
2022/08/18 12:45:51;;;;;;;10.30;9.40;;;;;;;;;;5090950;28;20464;-77
2022/08/18 12:48:18;;;;;;;9.50;8.80;;;;;;;;;;5093223;28;20444;-78
2022/08/18 12:50:45;;;;;;;9.70;9.10;;;;;;;;;;5093962;28;20448;-78
2022/08/18 12:53:12;;;;;;;9.87;9.20;;;;;;;;;;5073809;28;20479;-77
2022/08/18 12:55:42;;;;;;;10.40;9.60;;;;;;;;;;5073433;28;20862;-77
2022/08/18 12:58:10;;;;;;;10.97;9.93;;;;;;;;;;5077961;28;20449;-77
2022/08/18 13:00:38;;;;;;;9.83;9.23;;;;;;;;;;5078735;28;20454;-77
2022/08/18 13:03:06;;;;;;;10.87;10.07;;;;;;;;;;5074845;28;20494;-77
2022/08/18 13:05:34;;;;;;;11.07;10.13;;;;;;;;;;5073701;28;20471;-76
2022/08/18 13:08:02;;;;;;;10.77;9.73;;;;;;;;;;5073043;28;20510;-77
2022/08/18 13:10:29;;;;;;;9.60;8.80;;;;;;;;;;5080123;28;20767;-77
2022/08/18 13:12:56;;;;;;;10.77;9.77;;;;;;;;;;5092562;28;20436;-77
2022/08/18 13:15:23;;;;;;;9.90;9.20;;;;;;;;;;5089301;28;20522;-76
2022/08/18 13:17:50;;;;;;;9.43;8.73;;;;;;;;;;5086499;28;20440;-78
2022/08/18 13:20:19;;;;;;;9.33;8.60;;;;;;;;;;5095816;28;20529;-77
2022/08/18 13:22:46;;;;;;;10.77;10.07;;;;;;;;;;5095268;28;20453;-76
2022/08/18 13:25:16;;;;;;;11.03;10.00;;;;;;;;;;5084938;28;20567;-77
2022/08/18 13:27:43;;;;;;;10.63;9.87;;;;;;;;;;5086797;28;20444;-78
2022/08/18 13:30:13;;;;;;;11.13;10.40;;;;;;;;;;5092332;28;20451;-77
2022/08/18 13:32:40;;;;;;;11.50;10.40;;;;;;;;;;5091821;28;20444;-78
2022/08/18 13:35:08;;;;;;;11.00;9.97;;;;;;;;;;5092711;28;20547;-77
2022/08/18 13:37:37;;;;;;;10.30;9.60;;;;;;;;;;5092874;28;20436;-78
2022/08/18 13:40:05;;;;;;;11.00;10.00;;;;;;;;;;5092458;28;20450;-77
2022/08/18 13:42:32;;;;;;;10.73;9.80;;;;;;;;;;5092167;28;20497;-77
2022/08/18 13:45:00;;;;;;;9.13;8.50;;;;;;;;;;5092295;28;20590;-77
2022/08/18 13:47:30;;;;;;;8.67;8.07;;;;;;;;;;5092361;28;20927;-77
2022/08/18 13:49:58;;;;;;;8.03;7.50;;;;;;;;;;5092457;28;20947;-78
2022/08/18 13:52:25;;;;;;;7.63;7.17;;;;;;;;;;5092028;28;20502;-78
2022/08/18 13:54:54;;;;;;;8.57;7.87;;;;;;;;;;5091842;28;20515;-77
2022/08/18 13:57:21;;;;;;;8.70;8.00;;;;;;;;;;5092236;28;20531;-77
2022/08/18 13:59:48;;;;;;;9.57;8.83;;;;;;;;;;5092324;28;20439;-77
2022/08/18 14:02:15;;;;;;;8.50;7.90;;;;;;;;;;5091990;28;20448;-77
2022/08/18 14:04:42;;;;;;;8.77;8.13;;;;;;;;;;5091517;28;20524;-77
2022/08/18 14:07:09;;;;;;;8.20;7.70;;;;;;;;;;5091953;28;20459;-76
2022/08/18 14:09:36;;;;;;;9.10;8.50;;;;;;;;;;5091618;28;20500;-76
2022/08/18 14:12:08;;;;;;;9.07;8.03;;;;;;;;;;5091648;28;20438;-77
2022/08/18 14:14:35;;;;;;;9.53;8.70;;;;;;;;;;5091643;28;20439;-77
2022/08/18 14:17:02;;;;;;;8.90;8.40;;;;;;;;;;5091698;28;20466;-78
2022/08/18 14:27:55;;;;;;;8.10;7.50;;;;;;;;;;5028805;28;20472;-77
2022/08/18 14:30:22;;;;;;;9.10;8.30;;;;;;;;;;5076906;28;20455;-77
2022/08/18 14:32:51;;;;;;;8.20;7.50;;;;;;;;;;5091546;28;20915;-78
2022/08/18 14:35:19;;;;;;;8.90;8.30;;;;;;;;;;5091886;28;20456;-77
2022/08/18 14:37:46;;;;;;;8.43;7.83;;;;;;;;;;5092046;28;20464;-77
2022/08/18 14:40:13;;;;;;;8.50;7.90;;;;;;;;;;5091709;28;20493;-76
2022/08/18 14:42:41;;;;;;;8.60;8.10;;;;;;;;;;5091085;28;20927;-77
2022/08/18 14:45:10;;;;;;;9.10;8.40;;;;;;;;;;5090343;28;20480;-77
2022/08/18 14:47:37;;;;;;;8.97;8.17;;;;;;;;;;5091529;28;20447;-77
2022/08/18 14:50:04;;;;;;;9.47;8.63;;;;;;;;;;5091478;28;20443;-77
2022/08/18 14:52:31;;;;;;;9.00;8.47;;;;;;;;;;5091200;28;20447;-78
2022/08/18 14:54:58;;;;;;;9.47;8.57;;;;;;;;;;5091879;28;20871;-77
2022/08/18 14:57:25;;;;;;;9.50;8.40;;;;;;;;;;5091268;28;20439;-77
2022/08/18 14:59:53;;;;;;;8.70;8.00;;;;;;;;;;5091596;28;20458;-78
2022/08/18 15:02:21;;;;;;;7.80;7.40;;;;;;;;;;5091365;28;20432;-76
2022/08/18 15:04:48;;;;;;;8.07;7.37;;;;;;;;;;5090812;28;20498;-77
2022/08/18 15:07:16;;;;;;;8.07;7.47;;;;;;;;;;5092354;28;20505;-77
2022/08/18 15:09:43;;;;;;;7.80;7.17;;;;;;;;;;5091150;28;20439;-77
2022/08/18 15:12:10;;;;;;;8.40;7.80;;;;;;;;;;5091029;28;20510;-76
2022/08/18 15:14:37;;;;;;;8.40;7.57;;;;;;;;;;5091727;28;20435;-78
2022/08/18 15:17:07;;;;;;;7.93;7.40;;;;;;;;;;5091897;28;20883;-77